Time;durP1;ratioP1;P1;durP2;ratioP2;P2;SDS_P1;SDS_P2;PMS_P1;PMS_P2;Temp;Humidity;BMP_temperature;BMP_pressure;BME280_temperature;BME280_humidity;BME280_pressure;Samples;Min_cycle;Max_cycle;Signal;HPM_P1;HPM_P2
2023/04/04 00:01:42;;;;;;;2.37;1.27;;;;;;;;;;5067855;28;20224;-82
2023/04/04 00:04:07;;;;;;;7.03;2.00;;;;;;;;;;5080911;28;20189;-81
2023/04/04 00:06:33;;;;;;;2.50;1.70;;;;;;;;;;5079706;28;20203;-82
2023/04/04 00:08:58;;;;;;;1.33;1.07;;;;;;;;;;5050944;28;20269;-82
2023/04/04 00:11:25;;;;;;;1.80;1.40;;;;;;;;;;5080138;28;20186;-82
2023/04/04 00:13:50;;;;;;;2.83;1.67;;;;;;;;;;5049089;28;20205;-82
2023/04/04 00:16:15;;;;;;;4.43;1.90;;;;;;;;;;5078954;28;20278;-82
2023/04/04 00:18:40;;;;;;;1.30;1.20;;;;;;;;;;5049153;28;20233;-82
2023/04/04 00:21:06;;;;;;;1.27;1.17;;;;;;;;;;5076738;28;20174;-82
2023/04/04 00:23:31;;;;;;;2.80;1.70;;;;;;;;;;5061433;28;20189;-82
2023/04/04 00:25:56;;;;;;;4.37;1.90;;;;;;;;;;5061786;28;20280;-82
2023/04/04 00:28:21;;;;;;;3.00;2.20;;;;;;;;;;5049831;28;20251;-82
2023/04/04 00:30:47;;;;;;;2.93;2.30;;;;;;;;;;5079335;28;20181;-82
2023/04/04 00:33:13;;;;;;;2.60;1.50;;;;;;;;;;5048344;28;20268;-82
2023/04/04 00:35:38;;;;;;;4.30;1.97;;;;;;;;;;5061707;28;20239;-82
2023/04/04 00:38:03;;;;;;;1.70;1.37;;;;;;;;;;5051284;28;20193;-82
2023/04/04 00:40:28;;;;;;;2.10;1.90;;;;;;;;;;5076740;28;20176;-81
2023/04/04 00:42:54;;;;;;;2.40;1.60;;;;;;;;;;5062407;28;20198;-81
2023/04/04 00:45:19;;;;;;;3.83;2.10;;;;;;;;;;5072912;28;20192;-81
2023/04/04 00:47:45;;;;;;;2.07;1.87;;;;;;;;;;5052042;28;20181;-81
2023/04/04 00:50:10;;;;;;;6.53;1.53;;;;;;;;;;5048855;28;20300;-81
2023/04/04 00:52:36;;;;;;;3.50;1.87;;;;;;;;;;5064915;28;20188;-81
2023/04/04 00:55:02;;;;;;;2.23;1.97;;;;;;;;;;5066649;28;20198;-81
2023/04/04 00:57:28;;;;;;;2.60;2.23;;;;;;;;;;5065197;28;20177;-81
2023/04/04 00:59:56;;;;;;;1.60;1.37;;;;;;;;;;5054885;28;20175;-81
2023/04/04 01:02:22;;;;;;;4.70;1.77;;;;;;;;;;5046021;28;20181;-81
2023/04/04 01:04:47;;;;;;;3.73;2.03;;;;;;;;;;5075256;28;20178;-80
2023/04/04 01:07:12;;;;;;;2.00;1.63;;;;;;;;;;5047468;28;20185;-80
2023/04/04 01:09:38;;;;;;;2.10;1.80;;;;;;;;;;5076109;28;20200;-81
2023/04/04 01:12:03;;;;;;;2.47;1.83;;;;;;;;;;5050360;28;20190;-81
2023/04/04 01:14:28;;;;;;;2.00;1.60;;;;;;;;;;5071203;28;20202;-80
2023/04/04 01:16:54;;;;;;;2.30;2.10;;;;;;;;;;5051114;28;20176;-80
2023/04/04 01:19:37;;;;;;;3.50;2.50;;;;;;;;;;5073444;28;20256;-81
2023/04/04 01:22:03;;;;;;;3.70;2.00;;;;;;;;;;5040833;28;20181;-80
2023/04/04 01:24:32;;;;;;;4.07;2.30;;;;;;;;;;5048655;28;20178;-80
2023/04/04 01:26:59;;;;;;;2.83;2.27;;;;;;;;;;5040567;28;20178;-80
2023/04/04 01:29:24;;;;;;;2.30;2.10;;;;;;;;;;5049753;28;20192;-80
2023/04/04 01:31:56;;;;;;;4.47;2.27;;;;;;;;;;5046084;28;20188;-80
2023/04/04 01:34:41;;;;;;;4.07;1.67;;;;;;;;;;5046561;28;20205;-80
2023/04/04 01:37:11;;;;;;;1.00;0.97;;;;;;;;;;5038411;28;20211;-80
2023/04/04 01:39:39;;;;;;;3.60;2.40;;;;;;;;;;5079786;28;20177;-79
2023/04/04 01:42:05;;;;;;;2.07;1.87;;;;;;;;;;5081174;28;20200;-79
2023/04/04 01:44:31;;;;;;;2.47;1.93;;;;;;;;;;5053163;28;20169;-79
2023/04/04 01:46:56;;;;;;;4.03;2.17;;;;;;;;;;5044034;28;20179;-79
2023/04/04 01:49:22;;;;;;;2.37;2.17;;;;;;;;;;5047927;28;20244;-79
2023/04/04 01:51:48;;;;;;;3.17;2.30;;;;;;;;;;5046097;28;20188;-79
2023/04/04 01:54:13;;;;;;;2.93;2.13;;;;;;;;;;5048931;28;20200;-79
2023/04/04 01:56:39;;;;;;;5.07;3.77;;;;;;;;;;5062619;28;20181;-79
2023/04/04 01:59:06;;;;;;;4.67;2.23;;;;;;;;;;5074946;28;20232;-79
2023/04/04 02:01:32;;;;;;;2.30;2.10;;;;;;;;;;5048152;28;20249;-79
2023/04/04 02:03:57;;;;;;;3.47;2.10;;;;;;;;;;5053164;28;20185;-79
2023/04/04 02:06:23;;;;;;;4.33;2.53;;;;;;;;;;5046805;28;20183;-79
2023/04/04 02:08:48;;;;;;;2.97;2.30;;;;;;;;;;5061258;28;20194;-79
2023/04/04 02:11:13;;;;;;;3.07;2.43;;;;;;;;;;5049397;28;20212;-79
2023/04/04 02:13:43;;;;;;;3.93;2.83;;;;;;;;;;5041570;28;20201;-79
2023/04/04 02:16:08;;;;;;;2.53;2.23;;;;;;;;;;5045239;28;20181;-79
2023/04/04 02:18:33;;;;;;;3.27;2.50;;;;;;;;;;5061466;28;20272;-79
2023/04/04 02:20:58;;;;;;;2.83;2.20;;;;;;;;;;5044453;28;20235;-79
2023/04/04 02:23:24;;;;;;;4.20;2.17;;;;;;;;;;5051329;28;20196;-79
2023/04/04 02:25:49;;;;;;;2.13;2.00;;;;;;;;;;5048050;28;20208;-78
2023/04/04 02:28:15;;;;;;;2.13;1.93;;;;;;;;;;5048023;28;20223;-79
2023/04/04 02:30:40;;;;;;;1.87;1.63;;;;;;;;;;5063007;28;20180;-79
2023/04/04 02:33:06;;;;;;;2.63;2.43;;;;;;;;;;5048331;28;20227;-78
2023/04/04 02:35:31;;;;;;;4.00;2.27;;;;;;;;;;5060835;28;20191;-78
2023/04/04 02:37:56;;;;;;;2.97;2.30;;;;;;;;;;5048716;28;20185;-78
2023/04/04 02:40:22;;;;;;;2.07;1.97;;;;;;;;;;5043270;28;20185;-78
2023/04/04 02:42:47;;;;;;;2.97;2.50;;;;;;;;;;5048132;28;20203;-78
2023/04/04 02:45:13;;;;;;;2.47;2.03;;;;;;;;;;5059807;28;20180;-78
2023/04/04 02:47:38;;;;;;;5.33;2.47;;;;;;;;;;5046428;28;20174;-78
2023/04/04 02:50:04;;;;;;;6.33;2.40;;;;;;;;;;5047884;28;20385;-78
2023/04/04 02:52:30;;;;;;;2.77;2.50;;;;;;;;;;5046305;28;20235;-78
2023/04/04 02:54:55;;;;;;;2.73;2.30;;;;;;;;;;5047848;28;20210;-78
2023/04/04 02:57:20;;;;;;;1.47;1.37;;;;;;;;;;5070698;28;20179;-78
2023/04/04 02:59:45;;;;;;;2.40;2.20;;;;;;;;;;5059536;28;20182;-78
2023/04/04 03:02:11;;;;;;;3.23;2.20;;;;;;;;;;5064654;28;20225;-78
2023/04/04 03:04:36;;;;;;;5.47;2.40;;;;;;;;;;5055519;28;20180;-78
2023/04/04 03:07:02;;;;;;;2.40;2.00;;;;;;;;;;5045434;28;20179;-78
2023/04/04 03:09:28;;;;;;;2.40;1.37;;;;;;;;;;5041302;28;20205;-78
2023/04/04 03:11:53;;;;;;;6.37;5.87;;;;;;;;;;5055365;28;20190;-78
2023/04/04 03:14:18;;;;;;;2.57;1.97;;;;;;;;;;5080316;28;20204;-78
2023/04/04 03:16:44;;;;;;;4.27;2.10;;;;;;;;;;5051526;28;20184;-78
2023/04/04 03:19:09;;;;;;;2.77;2.17;;;;;;;;;;5045901;28;20178;-77
2023/04/04 03:21:34;;;;;;;2.60;2.40;;;;;;;;;;5067310;28;20176;-78
2023/04/04 03:23:59;;;;;;;4.10;2.37;;;;;;;;;;5053744;28;20271;-78
2023/04/04 03:26:27;;;;;;;3.00;2.30;;;;;;;;;;5052216;28;20198;-78
2023/04/04 03:28:52;;;;;;;2.97;2.63;;;;;;;;;;5078914;28;20170;-78
2023/04/04 03:31:17;;;;;;;2.80;1.93;;;;;;;;;;5051529;28;20188;-78
2023/04/04 03:33:43;;;;;;;7.20;3.13;;;;;;;;;;5061516;28;20233;-78
2023/04/04 03:36:10;;;;;;;4.97;2.97;;;;;;;;;;5051197;28;20176;-78
2023/04/04 03:38:35;;;;;;;3.57;2.73;;;;;;;;;;5080859;28;20218;-78
2023/04/04 03:41:02;;;;;;;6.03;2.50;;;;;;;;;;5048292;28;20172;-78
2023/04/04 03:43:28;;;;;;;3.13;2.40;;;;;;;;;;5049005;28;20218;-78
2023/04/04 03:45:54;;;;;;;4.03;2.70;;;;;;;;;;5074030;28;20184;-78
2023/04/04 03:48:19;;;;;;;2.57;2.20;;;;;;;;;;5080086;28;20173;-78
2023/04/04 03:50:44;;;;;;;2.03;1.83;;;;;;;;;;5067891;28;20195;-78
2023/04/04 03:53:10;;;;;;;4.45;3.80;;;;;;;;;;5051002;28;20179;-78
2023/04/04 03:55:39;;;;;;;3.27;2.37;;;;;;;;;;5052604;28;20419;-78
2023/04/04 03:58:04;;;;;;;2.37;2.13;;;;;;;;;;5054153;28;20196;-78
2023/04/04 04:00:29;;;;;;;3.17;2.53;;;;;;;;;;5076591;28;20188;-78
2023/04/04 04:02:54;;;;;;;3.10;2.53;;;;;;;;;;5040878;28;20194;-78
2023/04/04 04:05:19;;;;;;;3.43;2.50;;;;;;;;;;5077429;28;20179;-78
2023/04/04 04:07:45;;;;;;;2.70;2.50;;;;;;;;;;5064722;28;20182;-78
2023/04/04 04:10:12;;;;;;;4.33;2.10;;;;;;;;;;5066447;28;20266;-78
2023/04/04 04:12:38;;;;;;;2.43;2.17;;;;;;;;;;5045720;28;20195;-78
2023/04/04 04:15:03;;;;;;;2.50;2.23;;;;;;;;;;5051431;28;20241;-78
2023/04/04 04:17:28;;;;;;;3.83;2.37;;;;;;;;;;5046603;28;20164;-78
2023/04/04 04:19:53;;;;;;;2.53;2.17;;;;;;;;;;5059993;28;20179;-78
2023/04/04 04:22:19;;;;;;;2.70;2.43;;;;;;;;;;5049671;28;20200;-78
2023/04/04 04:24:44;;;;;;;2.77;2.40;;;;;;;;;;5078554;28;20217;-78
2023/04/04 04:27:09;;;;;;;3.20;2.40;;;;;;;;;;5050279;28;20231;-78
2023/04/04 04:29:35;;;;;;;4.93;4.53;;;;;;;;;;5050121;28;20183;-78
2023/04/04 04:32:01;;;;;;;3.53;3.03;;;;;;;;;;5064117;28;20178;-79
2023/04/04 04:34:26;;;;;;;5.87;2.93;;;;;;;;;;5051540;28;20283;-78
2023/04/04 04:36:52;;;;;;;2.80;2.60;;;;;;;;;;5048804;28;20266;-78
2023/04/04 04:39:17;;;;;;;3.07;2.37;;;;;;;;;;5051203;28;20224;-78
2023/04/04 04:41:43;;;;;;;3.23;2.93;;;;;;;;;;5054281;28;20277;-78
2023/04/04 04:44:08;;;;;;;3.70;3.30;;;;;;;;;;5078380;28;20227;-78
2023/04/04 04:46:33;;;;;;;3.90;2.73;;;;;;;;;;5058184;28;20191;-79
2023/04/04 04:48:58;;;;;;;6.80;4.00;;;;;;;;;;5046551;28;20369;-78
2023/04/04 04:51:24;;;;;;;7.90;2.87;;;;;;;;;;5046384;28;20171;-78
2023/04/04 04:53:49;;;;;;;4.40;3.20;;;;;;;;;;5081408;28;20256;-78
2023/04/04 04:56:14;;;;;;;4.37;2.53;;;;;;;;;;5048609;28;20178;-78
2023/04/04 04:58:40;;;;;;;3.53;3.20;;;;;;;;;;5066770;28;20176;-78
2023/04/04 05:01:05;;;;;;;3.87;2.23;;;;;;;;;;5052049;28;20250;-78
2023/04/04 05:03:30;;;;;;;3.03;2.50;;;;;;;;;;5046176;28;20312;-79
2023/04/04 05:05:56;;;;;;;5.83;2.93;;;;;;;;;;5045703;28;20325;-79
2023/04/04 05:08:21;;;;;;;3.80;2.80;;;;;;;;;;5047338;28;20175;-78
2023/04/04 05:10:46;;;;;;;7.90;7.30;;;;;;;;;;5043999;28;20179;-78
2023/04/04 05:13:12;;;;;;;4.50;2.90;;;;;;;;;;5083301;28;20174;-78
2023/04/04 05:15:38;;;;;;;3.23;2.97;;;;;;;;;;5042084;28;20179;-78
2023/04/04 05:18:03;;;;;;;5.53;3.50;;;;;;;;;;5045145;28;20178;-78
2023/04/04 05:20:28;;;;;;;3.87;2.33;;;;;;;;;;5047042;28;20171;-78
2023/04/04 05:22:53;;;;;;;3.47;3.03;;;;;;;;;;5047696;28;20313;-79
2023/04/04 05:25:19;;;;;;;3.40;3.10;;;;;;;;;;5046306;28;20218;-78
2023/04/04 05:27:47;;;;;;;4.77;2.93;;;;;;;;;;5076664;28;20182;-77
2023/04/04 05:30:13;;;;;;;8.63;3.90;;;;;;;;;;5044744;28;20182;-78
2023/04/04 05:32:38;;;;;;;3.93;3.10;;;;;;;;;;5043672;28;20176;-78
2023/04/04 05:35:03;;;;;;;1.87;1.77;;;;;;;;;;5046272;28;20344;-78
2023/04/04 05:37:29;;;;;;;2.40;2.20;;;;;;;;;;5073424;28;20171;-78
2023/04/04 05:39:54;;;;;;;6.80;2.80;;;;;;;;;;5048848;28;20232;-79
2023/04/04 05:42:20;;;;;;;3.63;3.33;;;;;;;;;;5049249;28;20218;-78
2023/04/04 05:44:45;;;;;;;3.87;2.97;;;;;;;;;;5052306;28;20185;-78
2023/04/04 05:47:11;;;;;;;3.83;3.00;;;;;;;;;;5050061;28;20190;-78
2023/04/04 05:49:36;;;;;;;2.47;2.27;;;;;;;;;;5057649;28;20233;-78
2023/04/04 05:52:01;;;;;;;4.73;3.30;;;;;;;;;;5075983;28;20182;-78
2023/04/04 05:54:27;;;;;;;10.07;6.53;;;;;;;;;;5048729;28;20305;-78
2023/04/04 05:56:52;;;;;;;7.10;5.87;;;;;;;;;;5074410;28;20179;-78
2023/04/04 05:59:17;;;;;;;3.60;3.30;;;;;;;;;;5047324;28;20217;-78
2023/04/04 06:01:43;;;;;;;5.03;3.80;;;;;;;;;;5065438;28;20214;-78
2023/04/04 06:04:08;;;;;;;1.93;1.77;;;;;;;;;;5050267;28;20311;-78
2023/04/04 06:06:34;;;;;;;4.20;3.47;;;;;;;;;;5047072;28;20171;-78
2023/04/04 06:08:59;;;;;;;4.37;3.90;;;;;;;;;;5076474;28;20183;-78
2023/04/04 06:11:25;;;;;;;4.13;3.60;;;;;;;;;;5062162;28;20239;-78
2023/04/04 06:13:51;;;;;;;5.20;2.90;;;;;;;;;;5042889;28;20283;-78
2023/04/04 06:16:16;;;;;;;2.20;1.97;;;;;;;;;;5060511;28;20182;-78
2023/04/04 06:18:42;;;;;;;4.33;3.40;;;;;;;;;;5043602;28;20182;-78
2023/04/04 06:21:07;;;;;;;5.83;3.13;;;;;;;;;;5047950;28;20170;-78
2023/04/04 06:23:32;;;;;;;4.60;3.50;;;;;;;;;;5045445;28;20174;-78
2023/04/04 06:25:57;;;;;;;5.97;3.00;;;;;;;;;;5059283;28;20218;-78
2023/04/04 06:28:23;;;;;;;8.87;7.00;;;;;;;;;;5044181;28;20213;-78
2023/04/04 06:30:55;;;;;;;9.93;2.83;;;;;;;;;;5081313;28;20174;-78
2023/04/04 06:33:21;;;;;;;3.77;3.47;;;;;;;;;;5049765;28;20177;-79
2023/04/04 06:35:46;;;;;;;3.03;2.57;;;;;;;;;;5074775;28;20182;-80
2023/04/04 06:38:11;;;;;;;3.47;2.40;;;;;;;;;;5045553;28;20270;-80
2023/04/04 06:40:36;;;;;;;3.53;3.17;;;;;;;;;;5062218;28;20174;-79
2023/04/04 06:43:02;;;;;;;2.40;2.20;;;;;;;;;;5049135;28;20222;-79
2023/04/04 06:45:27;;;;;;;4.93;2.40;;;;;;;;;;5079098;28;20190;-78
2023/04/04 06:47:55;;;;;;;1.77;1.67;;;;;;;;;;5047020;28;20210;-78
2023/04/04 06:50:21;;;;;;;4.40;3.50;;;;;;;;;;5075044;28;20320;-78
2023/04/04 06:52:47;;;;;;;3.00;2.30;;;;;;;;;;5050596;28;20174;-78
2023/04/04 06:55:12;;;;;;;6.93;3.67;;;;;;;;;;5081013;28;20228;-78
2023/04/04 06:57:38;;;;;;;4.00;3.10;;;;;;;;;;5079097;28;20209;-79
2023/04/04 07:00:04;;;;;;;4.27;3.57;;;;;;;;;;5062092;28;20174;-79
2023/04/04 07:02:29;;;;;;;4.43;3.97;;;;;;;;;;5046771;28;20270;-79
2023/04/04 07:04:54;;;;;;;3.53;3.03;;;;;;;;;;5043546;28;20185;-79
2023/04/04 07:07:23;;;;;;;3.93;3.53;;;;;;;;;;5043709;28;20187;-79
2023/04/04 07:09:48;;;;;;;3.37;3.07;;;;;;;;;;5041766;28;20178;-79
2023/04/04 07:12:14;;;;;;;2.43;2.23;;;;;;;;;;5041332;28;20182;-79
2023/04/04 07:14:39;;;;;;;2.17;1.67;;;;;;;;;;5056039;28;20251;-79
2023/04/04 07:17:05;;;;;;;6.47;3.73;;;;;;;;;;5052673;28;20175;-80
2023/04/04 07:19:30;;;;;;;7.40;6.00;;;;;;;;;;5077990;28;20179;-79
2023/04/04 07:21:55;;;;;;;4.37;3.23;;;;;;;;;;5041592;28;20216;-79
2023/04/04 07:24:21;;;;;;;3.43;2.50;;;;;;;;;;5046512;28;20258;-80
2023/04/04 07:26:46;;;;;;;3.90;3.27;;;;;;;;;;5047444;28;20177;-79
2023/04/04 07:29:11;;;;;;;3.93;2.43;;;;;;;;;;5047667;28;20280;-79
2023/04/04 07:31:36;;;;;;;3.30;2.33;;;;;;;;;;5059143;28;20261;-79
2023/04/04 07:34:02;;;;;;;4.60;3.20;;;;;;;;;;5041650;28;20206;-79
2023/04/04 07:36:28;;;;;;;2.60;2.40;;;;;;;;;;5043934;28;20184;-78
2023/04/04 07:38:53;;;;;;;3.40;2.93;;;;;;;;;;5043359;28;20179;-78
2023/04/04 07:41:20;;;;;;;10.77;9.80;;;;;;;;;;5047414;28;20184;-78
2023/04/04 07:43:45;;;;;;;3.83;3.03;;;;;;;;;;5059636;28;20229;-78
2023/04/04 07:46:10;;;;;;;2.67;2.20;;;;;;;;;;5040474;28;20199;-78
2023/04/04 07:48:36;;;;;;;4.13;3.67;;;;;;;;;;5047484;28;20214;-77
2023/04/04 07:51:02;;;;;;;2.07;1.87;;;;;;;;;;5046610;28;20188;-77
2023/04/04 07:53:27;;;;;;;3.80;3.13;;;;;;;;;;5041504;28;20255;-77
2023/04/04 07:55:52;;;;;;;3.57;2.90;;;;;;;;;;5049700;28;20187;-77
2023/04/04 07:58:17;;;;;;;3.07;2.77;;;;;;;;;;5045429;28;20176;-77
2023/04/04 08:00:42;;;;;;;4.00;2.83;;;;;;;;;;5047006;28;20172;-77
2023/04/04 08:03:08;;;;;;;2.93;2.73;;;;;;;;;;5053626;28;20179;-77
2023/04/04 08:05:33;;;;;;;2.43;2.23;;;;;;;;;;5077034;28;20203;-76
2023/04/04 08:07:58;;;;;;;3.33;3.03;;;;;;;;;;5062440;28;20193;-76
2023/04/04 08:10:23;;;;;;;4.67;3.53;;;;;;;;;;5076672;28;20193;-76
2023/04/04 08:12:49;;;;;;;4.00;3.40;;;;;;;;;;5048337;28;20172;-76
2023/04/04 08:15:14;;;;;;;6.13;3.50;;;;;;;;;;5066854;28;20207;-77
2023/04/04 08:17:42;;;;;;;4.30;3.90;;;;;;;;;;5083751;28;20173;-77
2023/04/04 08:20:07;;;;;;;5.70;4.20;;;;;;;;;;5049590;28;20185;-77
2023/04/04 08:22:32;;;;;;;5.23;3.43;;;;;;;;;;5049767;28;20181;-77
2023/04/04 08:24:58;;;;;;;6.43;3.10;;;;;;;;;;5045730;28;20247;-77
2023/04/04 08:27:23;;;;;;;7.53;3.13;;;;;;;;;;5076719;28;20185;-77
2023/04/04 08:29:48;;;;;;;5.93;4.20;;;;;;;;;;5081450;28;20176;-78
2023/04/04 08:32:14;;;;;;;5.53;3.53;;;;;;;;;;5045821;28;20248;-78
2023/04/04 08:34:40;;;;;;;5.90;3.07;;;;;;;;;;5049425;28;20199;-78
2023/04/04 08:37:05;;;;;;;4.53;3.53;;;;;;;;;;5039739;28;20180;-78
2023/04/04 08:39:30;;;;;;;5.10;3.67;;;;;;;;;;5044975;28;20245;-78
2023/04/04 08:42:00;;;;;;;4.40;3.43;;;;;;;;;;5054912;28;20274;-78
2023/04/04 08:44:27;;;;;;;3.70;3.27;;;;;;;;;;5078366;28;20188;-78
2023/04/04 08:46:53;;;;;;;4.43;4.03;;;;;;;;;;5076367;28;20205;-79
2023/04/04 08:49:20;;;;;;;1.67;1.57;;;;;;;;;;5047378;28;20341;-79
2023/04/04 08:51:45;;;;;;;3.67;3.30;;;;;;;;;;5076435;28;20275;-79
2023/04/04 08:54:11;;;;;;;3.93;3.53;;;;;;;;;;5048326;28;20286;-79
2023/04/04 08:56:37;;;;;;;5.13;3.50;;;;;;;;;;5049687;28;20176;-79
2023/04/04 08:59:05;;;;;;;3.00;2.80;;;;;;;;;;5076969;28;20176;-79
2023/04/04 09:01:30;;;;;;;4.83;3.47;;;;;;;;;;5040261;28;20192;-79
2023/04/04 09:03:56;;;;;;;4.43;4.03;;;;;;;;;;5072238;28;20248;-79
2023/04/04 09:06:22;;;;;;;4.30;3.73;;;;;;;;;;5082779;28;20210;-79
2023/04/04 09:08:47;;;;;;;3.43;3.13;;;;;;;;;;5062589;28;20217;-78
2023/04/04 09:11:13;;;;;;;5.37;3.60;;;;;;;;;;5076707;28;20267;-79
2023/04/04 09:13:39;;;;;;;4.20;3.20;;;;;;;;;;5047650;28;20270;-79
2023/04/04 09:16:04;;;;;;;3.80;3.20;;;;;;;;;;5051275;28;20182;-78
2023/04/04 09:18:30;;;;;;;4.70;2.53;;;;;;;;;;5078599;28;20194;-78
2023/04/04 09:20:55;;;;;;;3.77;3.33;;;;;;;;;;5044607;28;20178;-78
2023/04/04 09:23:22;;;;;;;4.83;3.43;;;;;;;;;;5066111;28;20259;-79
2023/04/04 09:25:48;;;;;;;3.70;3.27;;;;;;;;;;5049224;28;20193;-78
2023/04/04 09:28:14;;;;;;;2.47;2.27;;;;;;;;;;5047472;28;20173;-78
2023/04/04 09:30:40;;;;;;;4.87;3.27;;;;;;;;;;5065806;28;20181;-78
2023/04/04 09:33:05;;;;;;;2.20;2.00;;;;;;;;;;5047781;28;20185;-78
2023/04/04 09:35:38;;;;;;;2.50;2.30;;;;;;;;;;5039166;28;20210;-79
2023/04/04 09:38:04;;;;;;;3.50;2.87;;;;;;;;;;5047731;28;20191;-79
2023/04/04 09:40:30;;;;;;;3.13;2.83;;;;;;;;;;5048541;28;20184;-79
2023/04/04 09:42:59;;;;;;;3.97;3.23;;;;;;;;;;5051645;28;20193;-78
2023/04/04 09:45:28;;;;;;;4.13;2.60;;;;;;;;;;5041985;28;20179;-79
2023/04/04 09:47:54;;;;;;;2.23;2.03;;;;;;;;;;5046526;28;20185;-79
2023/04/04 09:50:23;;;;;;;2.17;1.97;;;;;;;;;;5068816;28;20279;-79
2023/04/04 09:52:48;;;;;;;2.70;2.37;;;;;;;;;;5048773;28;20214;-80
2023/04/04 09:55:14;;;;;;;2.87;2.60;;;;;;;;;;5049445;28;20232;-79
2023/04/04 09:57:39;;;;;;;4.00;2.23;;;;;;;;;;5081418;28;20176;-79
2023/04/04 10:00:09;;;;;;;3.33;2.23;;;;;;;;;;5048719;28;20182;-79
2023/04/04 10:02:38;;;;;;;2.07;1.93;;;;;;;;;;5035588;28;20175;-79
2023/04/04 10:05:03;;;;;;;2.20;1.73;;;;;;;;;;5045846;28;20283;-79
2023/04/04 10:07:29;;;;;;;3.50;2.10;;;;;;;;;;5048556;28;20175;-79
2023/04/04 10:09:55;;;;;;;3.20;2.63;;;;;;;;;;5072474;28;20186;-79
2023/04/04 10:12:24;;;;;;;3.97;2.57;;;;;;;;;;5048487;28;20174;-79
2023/04/04 10:14:56;;;;;;;4.40;2.93;;;;;;;;;;5074840;28;20236;-79
2023/04/04 10:17:22;;;;;;;8.53;2.43;;;;;;;;;;5047365;28;20214;-79
2023/04/04 10:19:48;;;;;;;3.67;3.23;;;;;;;;;;5065983;28;20178;-79
2023/04/04 10:22:14;;;;;;;2.33;2.13;;;;;;;;;;5042870;28;20238;-79
2023/04/04 10:24:39;;;;;;;4.87;2.43;;;;;;;;;;5047976;28;20208;-79
2023/04/04 10:27:04;;;;;;;1.33;1.20;;;;;;;;;;5046464;28;20174;-79
2023/04/04 10:29:31;;;;;;;3.37;2.50;;;;;;;;;;5080596;28;20182;-79
2023/04/04 10:31:59;;;;;;;3.20;2.63;;;;;;;;;;5064937;28;20193;-79
2023/04/04 10:34:31;;;;;;;3.83;2.47;;;;;;;;;;5044551;28;20288;-79
2023/04/04 10:37:07;;;;;;;2.70;1.53;;;;;;;;;;5071169;28;20181;-79
2023/04/04 10:39:36;;;;;;;4.67;3.00;;;;;;;;;;5069824;28;20161;-79
2023/04/04 10:42:04;;;;;;;2.17;1.80;;;;;;;;;;5039103;28;20279;-79
2023/04/04 10:44:32;;;;;;;4.87;4.40;;;;;;;;;;5048788;28;20181;-79
2023/04/04 10:46:58;;;;;;;3.20;2.10;;;;;;;;;;5076714;28;20178;-79
2023/04/04 10:49:24;;;;;;;2.00;1.80;;;;;;;;;;5050425;28;20226;-79
2023/04/04 10:51:53;;;;;;;3.00;2.60;;;;;;;;;;5048373;28;20188;-79
2023/04/04 10:54:22;;;;;;;3.40;2.90;;;;;;;;;;5047201;28;20206;-79
2023/04/04 10:56:48;;;;;;;2.03;1.83;;;;;;;;;;5049007;28;20185;-79
2023/04/04 10:59:14;;;;;;;4.07;3.20;;;;;;;;;;5041918;28;20175;-79
2023/04/04 11:01:50;;;;;;;5.10;2.80;;;;;;;;;;5048472;28;20170;-79
2023/04/04 11:04:19;;;;;;;2.87;2.67;;;;;;;;;;5039043;28;20190;-79
2023/04/04 11:07:03;;;;;;;3.07;2.77;;;;;;;;;;5048621;28;20182;-79
2023/04/04 11:10:04;;;;;;;2.63;2.33;;;;;;;;;;5042328;28;20181;-79
2023/04/04 11:12:33;;;;;;;1.70;1.40;;;;;;;;;;4950852;28;20189;-79
2023/04/04 11:15:01;;;;;;;5.70;2.37;;;;;;;;;;4966593;28;20211;-79
2023/04/04 11:17:45;;;;;;;1.90;1.73;;;;;;;;;;4959086;28;20273;-79
2023/04/04 11:20:13;;;;;;;3.30;2.93;;;;;;;;;;4964408;28;20253;-79
2023/04/04 11:22:40;;;;;;;3.17;2.87;;;;;;;;;;4961755;28;20196;-79
2023/04/04 11:25:23;;;;;;;4.70;3.10;;;;;;;;;;4951195;28;20216;-79
2023/04/04 11:27:51;;;;;;;2.27;2.07;;;;;;;;;;4948291;28;20320;-78
2023/04/04 11:30:16;;;;;;;3.67;2.73;;;;;;;;;;4970237;28;20209;-79
2023/04/04 11:32:46;;;;;;;5.17;3.33;;;;;;;;;;4955087;28;20240;-79
2023/04/04 11:35:11;;;;;;;3.70;3.40;;;;;;;;;;4976836;28;20198;-79
2023/04/04 11:37:43;;;;;;;4.20;3.20;;;;;;;;;;4954968;28;20220;-79
2023/04/04 11:40:10;;;;;;;5.27;3.10;;;;;;;;;;4965000;28;20241;-79
2023/04/04 11:42:37;;;;;;;3.33;2.80;;;;;;;;;;4954625;28;20201;-79
2023/04/04 11:45:03;;;;;;;8.40;2.77;;;;;;;;;;4953646;28;20254;-79
2023/04/04 11:47:30;;;;;;;7.20;4.00;;;;;;;;;;5035215;28;20191;-79
2023/04/04 11:49:55;;;;;;;6.83;3.70;;;;;;;;;;5043305;28;20227;-79
2023/04/04 11:52:22;;;;;;;5.70;4.23;;;;;;;;;;5079628;28;20239;-80
2023/04/04 11:54:48;;;;;;;4.33;3.43;;;;;;;;;;5054330;28;20210;-79
2023/04/04 11:57:14;;;;;;;3.10;2.67;;;;;;;;;;5051669;28;20183;-78
2023/04/04 11:59:47;;;;;;;2.87;2.67;;;;;;;;;;5052184;28;20171;-79
2023/04/04 12:02:14;;;;;;;4.73;3.27;;;;;;;;;;5050664;28;20189;-79
2023/04/04 12:04:43;;;;;;;3.90;2.50;;;;;;;;;;5045106;28;20299;-79
2023/04/04 12:07:08;;;;;;;4.50;3.53;;;;;;;;;;5046820;28;20273;-79
2023/04/04 12:09:33;;;;;;;3.10;2.80;;;;;;;;;;5056700;28;20245;-79
2023/04/04 12:11:59;;;;;;;3.97;3.10;;;;;;;;;;5050514;28;20237;-80
2023/04/04 12:14:25;;;;;;;5.90;3.90;;;;;;;;;;5050234;28;20215;-79
2023/04/04 12:16:51;;;;;;;2.47;2.27;;;;;;;;;;5083621;28;20183;-79
2023/04/04 12:19:17;;;;;;;2.93;1.97;;;;;;;;;;5050321;28;20189;-79
2023/04/04 12:21:42;;;;;;;3.97;2.80;;;;;;;;;;5045667;28;20188;-79
2023/04/04 12:24:08;;;;;;;6.37;4.03;;;;;;;;;;5045508;28;20181;-80
2023/04/04 12:26:40;;;;;;;3.47;3.07;;;;;;;;;;5048948;28;20239;-79
2023/04/04 12:29:06;;;;;;;3.67;3.30;;;;;;;;;;5048931;28;20183;-80
2023/04/04 12:31:32;;;;;;;3.60;3.20;;;;;;;;;;5077513;28;20330;-80
2023/04/04 12:33:58;;;;;;;3.00;2.80;;;;;;;;;;5083539;28;20208;-80
2023/04/04 12:36:24;;;;;;;3.80;2.50;;;;;;;;;;5046358;28;20173;-79
2023/04/04 12:38:59;;;;;;;5.23;3.27;;;;;;;;;;5047855;28;20208;-79
2023/04/04 12:41:26;;;;;;;3.87;3.40;;;;;;;;;;5048539;28;20247;-79
2023/04/04 12:43:51;;;;;;;3.40;3.10;;;;;;;;;;5049889;28;20227;-80
2023/04/04 12:46:17;;;;;;;5.67;3.30;;;;;;;;;;5047176;28;20189;-79
2023/04/04 12:48:43;;;;;;;2.60;2.40;;;;;;;;;;5050091;28;20389;-79
2023/04/04 12:51:09;;;;;;;3.10;2.50;;;;;;;;;;5050536;28;20177;-80
2023/04/04 12:53:48;;;;;;;6.13;3.73;;;;;;;;;;5064990;28;20185;-79
2023/04/04 12:56:14;;;;;;;5.10;3.47;;;;;;;;;;5053455;28;20181;-80
2023/04/04 12:58:39;;;;;;;5.07;3.37;;;;;;;;;;5045236;28;20177;-79
2023/04/04 13:01:05;;;;;;;5.60;5.00;;;;;;;;;;5040072;28;20178;-79
2023/04/04 13:03:32;;;;;;;4.07;2.83;;;;;;;;;;5044729;28;20166;-80
2023/04/04 13:05:58;;;;;;;3.60;3.30;;;;;;;;;;5044014;28;20181;-79
2023/04/04 13:08:23;;;;;;;4.60;3.20;;;;;;;;;;5044672;28;20186;-79
2023/04/04 13:11:03;;;;;;;3.93;2.87;;;;;;;;;;5079223;28;20190;-80
2023/04/04 13:13:32;;;;;;;4.17;3.27;;;;;;;;;;5078017;28;20181;-79
2023/04/04 13:15:58;;;;;;;3.60;3.30;;;;;;;;;;5064434;28;20211;-80
2023/04/04 13:18:25;;;;;;;4.10;3.37;;;;;;;;;;5070777;28;20174;-79
2023/04/04 13:20:51;;;;;;;3.13;2.83;;;;;;;;;;5050082;28;20197;-80
2023/04/04 13:23:16;;;;;;;3.13;2.80;;;;;;;;;;5049663;28;20182;-80
2023/04/04 13:25:42;;;;;;;3.80;3.50;;;;;;;;;;5047186;28;20244;-80
2023/04/04 13:28:07;;;;;;;3.30;2.87;;;;;;;;;;5047999;28;20179;-80
2023/04/04 13:30:32;;;;;;;6.77;3.13;;;;;;;;;;5066144;28;20187;-80
2023/04/04 13:32:59;;;;;;;4.03;3.70;;;;;;;;;;5048763;28;20191;-80
2023/04/04 13:35:25;;;;;;;4.10;3.50;;;;;;;;;;5048165;28;20279;-80
2023/04/04 13:37:50;;;;;;;4.33;2.80;;;;;;;;;;5068308;28;20271;-80
2023/04/04 13:40:15;;;;;;;7.07;3.70;;;;;;;;;;5075685;28;20278;-80
2023/04/04 13:42:41;;;;;;;6.30;3.97;;;;;;;;;;5073112;28;20256;-79
2023/04/04 13:45:06;;;;;;;3.83;2.87;;;;;;;;;;5049939;28;20178;-76
2023/04/04 13:47:31;;;;;;;5.57;3.60;;;;;;;;;;5069622;28;20184;-76
2023/04/04 13:49:57;;;;;;;3.03;2.80;;;;;;;;;;5047428;28;20313;-77
2023/04/04 13:52:22;;;;;;;3.80;3.00;;;;;;;;;;5070247;28;20278;-76
2023/04/04 13:54:48;;;;;;;3.40;2.87;;;;;;;;;;5053182;28;20194;-76
2023/04/04 13:57:13;;;;;;;4.13;3.43;;;;;;;;;;5076017;28;20186;-76
2023/04/04 13:59:38;;;;;;;4.10;3.70;;;;;;;;;;5073248;28;20217;-76
2023/04/04 14:02:03;;;;;;;7.13;3.47;;;;;;;;;;5043249;28;20211;-77
2023/04/04 14:04:29;;;;;;;3.30;2.47;;;;;;;;;;5048755;28;20177;-76
2023/04/04 14:06:54;;;;;;;3.83;3.40;;;;;;;;;;5064871;28;20182;-76
2023/04/04 14:09:19;;;;;;;4.43;3.30;;;;;;;;;;5052590;28;20277;-77
2023/04/04 14:11:45;;;;;;;4.07;3.40;;;;;;;;;;5076008;28;20247;-76
2023/04/04 14:14:10;;;;;;;5.40;3.40;;;;;;;;;;5045656;28;20228;-76
2023/04/04 14:16:35;;;;;;;5.43;3.50;;;;;;;;;;5042653;28;20214;-76
2023/04/04 14:19:01;;;;;;;5.60;3.90;;;;;;;;;;5045557;28;20182;-77
2023/04/04 14:21:27;;;;;;;4.57;4.17;;;;;;;;;;5042633;28;20244;-76
2023/04/04 14:23:52;;;;;;;3.70;3.40;;;;;;;;;;5063272;28;20179;-76
2023/04/04 14:26:18;;;;;;;3.50;2.77;;;;;;;;;;5049348;28;20320;-77
2023/04/04 14:28:43;;;;;;;3.40;3.10;;;;;;;;;;5043429;28;20170;-76
2023/04/04 14:31:08;;;;;;;5.70;4.40;;;;;;;;;;5042411;28;20247;-76
2023/04/04 14:33:33;;;;;;;6.83;3.90;;;;;;;;;;5041278;28;20240;-76
2023/04/04 14:35:58;;;;;;;4.83;4.17;;;;;;;;;;5048060;28;20251;-76
2023/04/04 14:38:24;;;;;;;2.53;1.93;;;;;;;;;;5046286;28;20201;-77